^^
Your Local Weather - Clay, NY Station Historical Data
Daily Summary for January 9, 2017 Units:  Metric    English   Both
« Previous Day
Next Day »
Daily Weekly Monthly Yearly Custom
  High: Low: Average:
Temperature: -5.3 °C -13.7 °C -9.7 °C
Dew Point: -11.9 °C -15.8 °C -13.9 °C
Humidity: 86% 54% 73%
Wind Speed: 9.7km/h 0km/h 2.3km/h
Wind Gust: 17.7km/h - -
Wind- - SSE
Pressure: 1036.1 hPa 1030.4 hPa -
Precipitation: 0 mm    
Historical Graphs
 
 
Tabular Data for January 9, 2017
Time Temperature Dew Point Pressure Wind Wind Speed Wind Gust Humidity Rainfall Rate (Hourly) solar
00:00 -12.2 °C -14.1 °C 1035.1 hPa Calm     86% 0 mm 0 W/m2
00:06 -12.1 °C -14 °C 1035.1 hPa Calm     86% 0 mm 0 W/m2
00:12 -12.1 °C -13.9 °C 1035.1 hPa Calm     86% 0 mm 0 W/m2
00:18 -12 °C -13.9 °C 1035.1 hPa Calm     86% 0 mm 0 W/m2
00:24 -11.9 °C -13.8 °C 1035.1 hPa Calm     86% 0 mm 0 W/m2
00:30 -11.9 °C -13.8 °C 1035.1 hPa Calm     86% 0 mm 0 W/m2
00:36 -11.9 °C -13.8 °C 1035.1 hPa Calm     86% 0 mm 0 W/m2
00:42 -11.9 °C -13.8 °C 1034.8 hPa Calm     86% 0 mm 0 W/m2
00:48 -12 °C -13.9 °C 1034.8 hPa Calm     86% 0 mm 0 W/m2
01:00 -12.2 °C -14.2 °C 1035.1 hPa Calm     85% 0 mm 0 W/m2
01:06 -12.3 °C -14.3 °C 1035.1 hPa Calm     85% 0 mm 0 W/m2
01:12 -12.4 °C -14.4 °C 1035.1 hPa Calm     85% 0 mm 0 W/m2
01:18 -12.6 °C -14.6 °C 1035.1 hPa Calm     85% 0 mm 0 W/m2
01:24 -12.6 °C -14.6 °C 1035.1 hPa Calm     85% 0 mm 0 W/m2
01:30 -12.6 °C -14.6 °C 1035.1 hPa Calm     85% 0 mm 0 W/m2
01:36 -12.7 °C -14.5 °C 1035.1 hPa Calm     86% 0 mm 0 W/m2
01:42 -12.7 °C -14.5 °C 1035.1 hPa Calm     86% 0 mm 0 W/m2
01:48 -12.4 °C -14.3 °C 1035.1 hPa Calm     86% 0 mm 0 W/m2
01:54 -12.3 °C -14.1 °C 1035.1 hPa Calm     86% 0 mm 0 W/m2
02:00 -12.2 °C -14.1 °C 1035.1 hPa Calm     86% 0 mm 0 W/m2
02:06 -12.1 °C -13.9 °C 1035.4 hPa Calm     86% 0 mm 0 W/m2
02:12 -12 °C -13.9 °C 1035.4 hPa Calm     86% 0 mm 0 W/m2
02:18 -11.9 °C -13.9 °C 1035.4 hPa Calm     85% 0 mm 0 W/m2
02:24 -11.9 °C -13.9 °C 1035.8 hPa Calm     85% 0 mm 0 W/m2
02:30 -11.9 °C -13.9 °C 1035.4 hPa Calm     85% 0 mm 0 W/m2
02:36 -11.9 °C -13.9 °C 1035.8 hPa Calm     85% 0 mm 0 W/m2
02:42 -11.9 °C -13.9 °C 1035.8 hPa Calm     85% 0 mm 0 W/m2
02:48 -11.9 °C -13.9 °C 1035.8 hPa Calm     85% 0 mm 0 W/m2
02:54 -11.9 °C -13.9 °C 1035.8 hPa Calm     85% 0 mm 0 W/m2
03:00 -12 °C -14 °C 1035.4 hPa Calm     85% 0 mm 0 W/m2
03:06 -12.1 °C -14.1 °C 1035.4 hPa Calm     85% 0 mm 0 W/m2
03:12 -12.1 °C -14.1 °C 1035.8 hPa Calm     85% 0 mm 0 W/m2
03:18 -12.2 °C -14.2 °C 1035.8 hPa Calm     85% 0 mm 0 W/m2
03:24 -12.1 °C -14.1 °C 1035.8 hPa Calm     85% 0 mm 0 W/m2
03:30 -12.1 °C -14.1 °C 1035.8 hPa Calm     85% 0 mm 0 W/m2
03:36 -12.1 °C -14.1 °C 1035.8 hPa Calm     85% 0 mm 0 W/m2
03:42 -12.1 °C -14.1 °C 1035.8 hPa Calm     85% 0 mm 0 W/m2
03:48 -12.1 °C -14.1 °C 1035.8 hPa Calm     85% 0 mm 0 W/m2
03:54 -12.1 °C -14.1 °C 1035.8 hPa Calm     85% 0 mm 0 W/m2
04:00 -12 °C -14 °C 1035.8 hPa Calm     85% 0 mm 0 W/m2
04:06 -11.9 °C -13.9 °C 1035.8 hPa Calm     85% 0 mm 0 W/m2
04:12 -11.9 °C -13.9 °C 1035.4 hPa Calm     85% 0 mm 0 W/m2
04:18 -11.9 °C -13.9 °C 1035.4 hPa Calm     85% 0 mm 0 W/m2
04:24 -11.9 °C -13.9 °C 1035.4 hPa Calm     85% 0 mm 0 W/m2
04:30 -11.9 °C -13.9 °C 1035.4 hPa Calm     85% 0 mm 0 W/m2
04:36 -11.9 °C -13.9 °C 1035.4 hPa Calm     85% 0 mm 0 W/m2
04:42 -11.9 °C -13.9 °C 1035.4 hPa Calm     85% 0 mm 0 W/m2
04:48 -11.9 °C -13.9 °C 1035.4 hPa Calm     85% 0 mm 0 W/m2
04:54 -11.9 °C -13.9 °C 1035.4 hPa Calm     85% 0 mm 0 W/m2
05:00 -11.9 °C -13.9 °C 1035.1 hPa Calm     85% 0 mm 0 W/m2
05:06 -11.8 °C -13.8 °C 1035.1 hPa Calm     85% 0 mm 0 W/m2
05:12 -11.8 °C -13.8 °C 1035.1 hPa Calm     85% 0 mm 0 W/m2
05:18 -11.8 °C -13.7 °C 1035.4 hPa Calm     86% 0 mm 0 W/m2
05:24 -11.7 °C -13.7 °C 1035.1 hPa Calm     85% 0 mm 0 W/m2
05:30 -11.7 °C -13.6 °C 1035.1 hPa Calm     86% 0 mm 0 W/m2
05:36 -11.7 °C -13.7 °C 1035.1 hPa Calm     85% 0 mm 0 W/m2
05:42 -11.7 °C -13.6 °C 1035.1 hPa Calm     86% 0 mm 0 W/m2
05:48 -11.7 °C -13.6 °C 1035.4 hPa Calm     86% 0 mm 0 W/m2
05:54 -11.8 °C -13.7 °C 1035.4 hPa Calm     86% 0 mm 0 W/m2
06:00 -11.8 °C -13.8 °C 1035.4 hPa Calm     85% 0 mm 0 W/m2
06:06 -11.8 °C -13.8 °C 1035.4 hPa Calm     85% 0 mm 0 W/m2
06:12 -11.8 °C -13.8 °C 1035.8 hPa Calm     85% 0 mm 0 W/m2
06:18 -11.8 °C -13.8 °C 1035.8 hPa Calm     85% 0 mm 0 W/m2
06:24 -11.8 °C -13.8 °C 1035.8 hPa Calm     85% 0 mm 0 W/m2
06:30 -11.8 °C -13.8 °C 1035.8 hPa Calm     85% 0 mm 0 W/m2
06:36 -11.8 °C -13.8 °C 1035.8 hPa Calm     85% 0 mm 0 W/m2
06:42 -12.1 °C -14.3 °C 1035.8 hPa Calm     84% 0 mm 0 W/m2
06:48 -12.7 °C -14.9 °C 1035.8 hPa Calm     83% 0 mm 0 W/m2
06:54 -12.9 °C -15.1 °C 1035.8 hPa Calm     84% 0 mm 0 W/m2
07:00 -13 °C -15.1 °C 1035.8 hPa Calm     84% 0 mm 0 W/m2
07:06 -13.1 °C -15.2 °C 1035.8 hPa Calm     84% 0 mm 0 W/m2
07:12 -13.1 °C -15.2 °C 1035.8 hPa Calm     84% 0 mm 0 W/m2
07:18 -13.2 °C -15.2 °C 1035.8 hPa Calm     85% 0 mm 0 W/m2
07:24 -13.3 °C -15.4 °C 1036.1 hPa Calm     84% 0 mm 0 W/m2
07:30 -13.4 °C -15.5 °C 1035.8 hPa Calm     84% 0 mm 0 W/m2
07:36 -13.4 °C -15.6 °C 1036.1 hPa Calm     84% 0 mm 0 W/m2
07:42 -13.6 °C -15.7 °C 1036.1 hPa Calm     84% 0 mm 0 W/m2
07:48 -13.6 °C -15.7 °C 1036.1 hPa Calm     84% 0 mm 0 W/m2
07:54 -13.7 °C -15.8 °C 1036.1 hPa Calm     84% 0 mm 0 W/m2
08:00 -13.7 °C -15.8 °C 1036.1 hPa Calm     84% 0 mm 5 W/m2
08:06 -13.6 °C -15.7 °C 1036.1 hPa Calm     84% 0 mm 7 W/m2
08:12 -13.6 °C -15.6 °C 1036.1 hPa Calm     85% 0 mm 7 W/m2
08:18 -13.6 °C -15.6 °C 1036.1 hPa Calm     85% 0 mm 9 W/m2
08:24 -13.4 °C -15.4 °C 1036.1 hPa Calm     85% 0 mm 11 W/m2
08:36 -13.3 °C -15.3 °C 1036.1 hPa Calm     85% 0 mm 14 W/m2
08:42 -13.2 °C -15.2 °C 1035.8 hPa Calm     85% 0 mm 18 W/m2
08:48 -13.1 °C -15.1 °C 1035.8 hPa Calm   1.6 km/h 85% 0 mm 19 W/m2
08:54 -13.1 °C -15.2 °C 1035.8 hPa Calm   1.6 km/h 84% 0 mm 21 W/m2
09:00 -13 °C -15.1 °C 1035.8 hPa Calm     84% 0 mm 25 W/m2
09:06 -12.9 °C -15 °C 1035.8 hPa Calm     84% 0 mm 28 W/m2
09:12 -12.7 °C -14.9 °C 1035.8 hPa Calm   1.6 km/h 84% 0 mm 32 W/m2
09:18 -12.6 °C -14.8 °C 1035.8 hPa Calm   1.6 km/h 84% 0 mm 33 W/m2
09:30 -12.5 °C -14.7 °C 1035.4 hPa Calm     84% 0 mm 33 W/m2
09:36 -12.3 °C -14.5 °C 1035.4 hPa Calm     84% 0 mm 33 W/m2
09:42 -12 °C -14.2 °C 1035.4 hPa Calm   1.6 km/h 84% 0 mm 39 W/m2
09:48 -11.8 °C -14.1 °C 1035.4 hPa Calm   1.6 km/h 83% 0 mm 44 W/m2
09:54 -11.5 °C -13.8 °C 1035.4 hPa Calm     83% 0 mm 46 W/m2
10:00 -11.1 °C -13.4 °C 1035.4 hPa Calm     83% 0 mm 47 W/m2
10:06 -10.8 °C -13.1 °C 1035.4 hPa Calm     83% 0 mm 51 W/m2
10:12 -10.6 °C -13.1 °C 1035.4 hPa ENE 1.6 km/h 3.2 km/h 82% 0 mm 51 W/m2
10:18 -10.4 °C -13 °C 1035.4 hPa Calm   3.2 km/h 81% 0 mm 53 W/m2
10:24 -10.1 °C -12.8 °C 1035.4 hPa Calm   1.6 km/h 81% 0 mm 60 W/m2
10:30 -9.8 °C -12.6 °C 1035.1 hPa Calm   1.6 km/h 80% 0 mm 56 W/m2
10:36 -9.4 °C -12.4 °C 1035.1 hPa ESE 1.6 km/h 4.8 km/h 79% 0 mm 56 W/m2
10:48 -8.8 °C -12.1 °C 1034.8 hPa SE 1.6 km/h 1.6 km/h 77% 0 mm 67 W/m2
10:54 -8.6 °C -12.1 °C 1034.8 hPa SSE 3.2 km/h 8 km/h 76% 0 mm 70 W/m2
11:00 -8.2 °C -11.9 °C 1034.8 hPa SSE 4.8 km/h 6.4 km/h 75% 0 mm 65 W/m2
11:06 -8.1 °C -12.4 °C 1034.4 hPa South 6.4 km/h 8 km/h 71% 0 mm 62 W/m2
11:14 -7.9 °C -12.4 °C 1034.1 hPa SSW 6.4 km/h 6.4 km/h 70% 0 mm 62 W/m2
11:20 -7.8 °C -12.7 °C 1034.1 hPa SSE 8 km/h 11.3 km/h 68% 0 mm 69 W/m2
11:26 -7.6 °C -12.5 °C 1034.1 hPa South 8 km/h 11.3 km/h 68% 0 mm 76 W/m2
11:32 -7.6 °C -12.6 °C 1033.7 hPa South 8 km/h 11.3 km/h 67% 0 mm 83 W/m2
11:38 -7.6 °C -13.1 °C 1033.7 hPa SE 9.7 km/h 11.3 km/h 65% 0 mm 86 W/m2
11:44 -7.6 °C -12.8 °C 1033.7 hPa SSE 9.7 km/h 12.9 km/h 66% 0 mm 90 W/m2
11:50 -7.6 °C -13 °C 1033.7 hPa SSW 8 km/h 11.3 km/h 65% 0 mm 86 W/m2
11:56 -7.6 °C -13.2 °C 1032.7 hPa SE 9.7 km/h 14.5 km/h 64% 0 mm 98 W/m2
12:02 -7.4 °C -13.1 °C 1033.1 hPa SSE 9.7 km/h 14.5 km/h 64% 0 mm 107 W/m2
12:08 -7.4 °C -13.3 °C 1033.1 hPa SE 9.7 km/h 14.5 km/h 63% 0 mm 102 W/m2
12:16 -7.2 °C -12.8 °C 1032.7 hPa SE 8 km/h 9.7 km/h 64% 0 mm 97 W/m2
12:22 -7.3 °C -13.3 °C 1032.7 hPa South 9.7 km/h 11.3 km/h 62% 0 mm 209 W/m2
12:28 -7.2 °C -13.3 °C 1032.7 hPa SSE 8 km/h 12.9 km/h 62% 0 mm 200 W/m2
12:34 -7.1 °C -12.8 °C 1032.7 hPa South 6.4 km/h 8 km/h 64% 0 mm 234 W/m2
12:40 -7.1 °C -13.3 °C 1032.4 hPa SSE 8 km/h 9.7 km/h 61% 0 mm 251 W/m2
12:46 -6.8 °C -12.8 °C 1032.4 hPa South 8 km/h 11.3 km/h 62% 0 mm 279 W/m2
12:58 -6.7 °C -13.2 °C 1032.1 hPa South 8 km/h 11.3 km/h 60% 0 mm 237 W/m2
13:04 -6.6 °C -13.1 °C 1032.1 hPa SSE 8 km/h 8 km/h 60% 0 mm 232 W/m2
13:10 -6.6 °C -13.4 °C 1031.7 hPa SSE 9.7 km/h 9.7 km/h 58% 0 mm 250 W/m2
13:16 -6.3 °C -13.1 °C 1031.7 hPa South 8 km/h 9.7 km/h 59% 0 mm 246 W/m2
13:22 -6.3 °C -13.3 °C 1031.4 hPa SSE 8 km/h 11.3 km/h 58% 0 mm 179 W/m2
13:28 -6.2 °C -12.9 °C 1031.4 hPa SSE 8 km/h 11.3 km/h 59% 0 mm 237 W/m2
13:36 -5.9 °C -12.9 °C 1031.4 hPa SSE 6.4 km/h 8 km/h 58% 0 mm 206 W/m2
13:42 -6 °C -12.9 °C 1031.4 hPa SSE 6.4 km/h 8 km/h 58% 0 mm 195 W/m2
13:48 -6 °C -13.2 °C 1031.4 hPa SSE 8 km/h 16.1 km/h 57% 0 mm 162 W/m2
13:56 -6 °C -12.9 °C 1031.4 hPa SE 8 km/h 9.7 km/h 58% 0 mm 141 W/m2
14:02 -5.9 °C -12.9 °C 1031.4 hPa SSE 6.4 km/h 9.7 km/h 58% 0 mm 141 W/m2
14:14 -5.7 °C -12.4 °C 1031 hPa SSE 4.8 km/h 6.4 km/h 59% 0 mm 86 W/m2
14:20 -5.7 °C -12.7 °C 1031 hPa SE 6.4 km/h 6.4 km/h 58% 0 mm 104 W/m2
14:26 -5.8 °C -12.7 °C 1031 hPa SSE 6.4 km/h 8 km/h 58% 0 mm 116 W/m2
14:32 -5.8 °C -12.8 °C 1031 hPa South 8 km/h 9.7 km/h 58% 0 mm 105 W/m2
14:38 -5.8 °C -12.5 °C 1031 hPa SSW 6.4 km/h 9.7 km/h 59% 0 mm 102 W/m2
14:46 -5.9 °C -12.4 °C 1031 hPa SSE 8 km/h 11.3 km/h 60% 0 mm 111 W/m2
14:52 -5.9 °C -12.2 °C 1031 hPa ESE 9.7 km/h 9.7 km/h 61% 0 mm 116 W/m2
14:58 -5.8 °C -12.3 °C 1031 hPa SSE 9.7 km/h 17.7 km/h 60% 0 mm 137 W/m2
15:04 -5.8 °C -12.3 °C 1031 hPa South 9.7 km/h 9.7 km/h 60% 0 mm 127 W/m2
15:10 -5.7 °C -12 °C 1030.7 hPa South 8 km/h 8 km/h 61% 0 mm 93 W/m2
15:16 -5.7 °C -12 °C 1030.7 hPa South 8 km/h 14.5 km/h 61% 0 mm 88 W/m2
15:22 -5.7 °C -12.2 °C 1030.7 hPa SSE 8 km/h 14.5 km/h 60% 0 mm 93 W/m2
15:28 -5.7 °C -12 °C 1030.7 hPa South 8 km/h 14.5 km/h 61% 0 mm 95 W/m2
15:36 -5.4 °C -12 °C 1030.4 hPa SSE 8 km/h 11.3 km/h 60% 0 mm 155 W/m2
15:42 -5.3 °C -12.1 °C 1030.4 hPa SE 8 km/h 11.3 km/h 59% 0 mm 118 W/m2
15:48 -5.3 °C -12.1 °C 1030.4 hPa South 6.4 km/h 11.3 km/h 59% 0 mm 79 W/m2
15:54 -5.3 °C -12.1 °C 1030.4 hPa South 4.8 km/h 9.7 km/h 59% 0 mm 72 W/m2
16:00 -5.4 °C -12.4 °C 1030.4 hPa SE 6.4 km/h 6.4 km/h 58% 0 mm 58 W/m2
16:06 -5.4 °C -12.2 °C 1030.7 hPa SSE 6.4 km/h 11.3 km/h 59% 0 mm 46 W/m2
16:12 -5.4 °C -11.9 °C 1031 hPa SSW 4.8 km/h 4.8 km/h 60% 0 mm 74 W/m2
16:18 -5.3 °C -12.1 °C 1031 hPa SW 4.8 km/h 6.4 km/h 59% 0 mm 30 W/m2
16:24 -5.3 °C -12.1 °C 1031 hPa South 4.8 km/h 8 km/h 59% 0 mm 21 W/m2
16:30 -5.4 °C -12.4 °C 1031 hPa SSE 4.8 km/h 8 km/h 58% 0 mm 18 W/m2
16:36 -5.4 °C -12.6 °C 1031 hPa SSE 6.4 km/h 8 km/h 57% 0 mm 14 W/m2
16:42 -5.5 °C -12.4 °C 1031 hPa SSE 4.8 km/h 6.4 km/h 58% 0 mm 5 W/m2
16:48 -5.6 °C -12.4 °C 1031 hPa SE 3.2 km/h 6.4 km/h 59% 0 mm 0 W/m2
16:54 -5.7 °C -12.7 °C 1031 hPa SE 3.2 km/h 4.8 km/h 58% 0 mm 0 W/m2
17:00 -5.8 °C -12.7 °C 1030.7 hPa SSE 4.8 km/h 4.8 km/h 58% 0 mm 0 W/m2
17:06 -5.8 °C -12.8 °C 1030.7 hPa SSE 1.6 km/h 4.8 km/h 58% 0 mm 0 W/m2
17:12 -6.1 °C -12.8 °C 1030.7 hPa SSE 1.6 km/h 1.6 km/h 59% 0 mm 0 W/m2
17:18 -6.2 °C -12.9 °C 1031 hPa SSE 1.6 km/h 3.2 km/h 59% 0 mm 0 W/m2
17:24 -6.5 °C -13 °C 1031 hPa SSE 1.6 km/h 1.6 km/h 60% 0 mm 0 W/m2
17:30 -6.7 °C -13 °C 1031 hPa SSE 1.6 km/h 1.6 km/h 61% 0 mm 0 W/m2
17:36 -6.6 °C -13.1 °C 1031 hPa South 1.6 km/h 4.8 km/h 60% 0 mm 0 W/m2
17:42 -6.6 °C -13.1 °C 1031 hPa South 1.6 km/h 3.2 km/h 60% 0 mm 0 W/m2
17:48 -6.6 °C -13.3 °C 1031 hPa SSW 1.6 km/h 3.2 km/h 59% 0 mm 0 W/m2
17:54 -6.5 °C -13.4 °C 1031.4 hPa SSW 1.6 km/h 3.2 km/h 58% 0 mm 0 W/m2
18:00 -6.4 °C -13.9 °C 1031 hPa SSE 3.2 km/h 4.8 km/h 55% 0 mm 0 W/m2
18:06 -6.2 °C -13.8 °C 1031.4 hPa SSW 3.2 km/h 9.7 km/h 55% 0 mm 0 W/m2
18:12 -6.2 °C -14.1 °C 1031.4 hPa South 3.2 km/h 3.2 km/h 54% 0 mm 0 W/m2
18:18 -6.2 °C -14 °C 1031.4 hPa South 3.2 km/h 8 km/h 54% 0 mm 0 W/m2
18:24 -6.2 °C -14 °C 1031.7 hPa SW 3.2 km/h 4.8 km/h 54% 0 mm 0 W/m2
18:30 -6.3 °C -14.1 °C 1031.7 hPa SSW 3.2 km/h 3.2 km/h 54% 0 mm 0 W/m2
18:36 -6.5 °C -14.1 °C 1031.7 hPa South 1.6 km/h 3.2 km/h 55% 0 mm 0 W/m2
18:42 -6.6 °C -14.1 °C 1031.7 hPa South 3.2 km/h 6.4 km/h 55% 0 mm 0 W/m2
18:48 -6.5 °C -14.1 °C 1031.7 hPa South 3.2 km/h 6.4 km/h 55% 0 mm 0 W/m2
18:54 -6.5 °C -14.1 °C 1031.7 hPa SSW 4.8 km/h 6.4 km/h 55% 0 mm 0 W/m2
19:00 -6.4 °C -14 °C 1031.7 hPa SSW 6.4 km/h 6.4 km/h 55% 0 mm 0 W/m2
19:06 -6.4 °C -14 °C 1031.7 hPa South 4.8 km/h 8 km/h 55% 0 mm 0 W/m2
19:12 -6.4 °C -14.2 °C 1031.7 hPa South 4.8 km/h 6.4 km/h 54% 0 mm 0 W/m2
19:18 -6.4 °C -14.2 °C 1031.7 hPa SSW 4.8 km/h 8 km/h 54% 0 mm 0 W/m2
19:24 -6.4 °C -14.2 °C 1031.7 hPa South 3.2 km/h 9.7 km/h 54% 0 mm 0 W/m2
19:30 -6.4 °C -14 °C 1032.1 hPa SSE 3.2 km/h 6.4 km/h 55% 0 mm 0 W/m2
19:36 -6.4 °C -14.2 °C 1032.1 hPa SSW 4.8 km/h 6.4 km/h 54% 0 mm 0 W/m2
19:42 -6.3 °C -14.1 °C 1032.1 hPa South 4.8 km/h 4.8 km/h 54% 0 mm 0 W/m2
19:48 -6.4 °C -14.2 °C 1032.1 hPa South 4.8 km/h 4.8 km/h 54% 0 mm 0 W/m2
19:54 -6.6 °C -14.2 °C 1031.7 hPa South 3.2 km/h 3.2 km/h 55% 0 mm 0 W/m2
20:00 -6.9 °C -14.3 °C 1032.1 hPa SSE 1.6 km/h 3.2 km/h 56% 0 mm 0 W/m2
20:06 -7.1 °C -14.4 °C 1032.1 hPa SSE 1.6 km/h 3.2 km/h 56% 0 mm 0 W/m2
20:12 -7.4 °C -14.4 °C 1032.1 hPa SSE 1.6 km/h 1.6 km/h 57% 0 mm 0 W/m2
20:18 -7.7 °C -14.6 °C 1032.1 hPa Calm   1.6 km/h 58% 0 mm 0 W/m2
20:24 -7.9 °C -14.5 °C 1032.1 hPa Calm   3.2 km/h 59% 0 mm 0 W/m2
20:30 -8.1 °C -14.7 °C 1032.1 hPa Calm     59% 0 mm 0 W/m2
20:36 -8.3 °C -14.7 °C 1032.1 hPa Calm     60% 0 mm 0 W/m2
20:42 -8.8 °C -14.9 °C 1032.1 hPa Calm     61% 0 mm 0 W/m2
20:48 -9.1 °C -15 °C 1032.1 hPa Calm     62% 0 mm 0 W/m2
20:54 -9.1 °C -14.8 °C 1032.1 hPa Calm   1.6 km/h 63% 0 mm 0 W/m2
21:00 -9.2 °C -14.7 °C 1032.1 hPa Calm     64% 0 mm 0 W/m2
21:06 -9.4 °C -14.6 °C 1032.1 hPa Calm     66% 0 mm 0 W/m2
21:12 -9.8 °C -14.6 °C 1032.1 hPa Calm     68% 0 mm 0 W/m2
21:18 -10.2 °C -14.8 °C 1032.1 hPa Calm   1.6 km/h 69% 0 mm 0 W/m2
21:24 -10.6 °C -15 °C 1032.1 hPa Calm     70% 0 mm 0 W/m2
21:30 -10.9 °C -14.9 °C 1032.1 hPa Calm     72% 0 mm 0 W/m2
21:36 -11 °C -15.2 °C 1032.1 hPa Calm     71% 0 mm 0 W/m2
21:42 -11.1 °C -15.3 °C 1032.1 hPa Calm     71% 0 mm 0 W/m2
21:48 -11.2 °C -15.3 °C 1032.4 hPa Calm     72% 0 mm 0 W/m2
21:54 -11.4 °C -15.3 °C 1032.1 hPa Calm     73% 0 mm 0 W/m2
22:00 -11.4 °C -14.9 °C 1032.1 hPa Calm     75% 0 mm 0 W/m2
22:06 -11.4 °C -15.2 °C 1032.1 hPa Calm     74% 0 mm 0 W/m2
22:12 -11.6 °C -15.1 °C 1032.1 hPa Calm     75% 0 mm 0 W/m2
22:18 -11.6 °C -15 °C 1032.1 hPa Calm     76% 0 mm 0 W/m2
22:24 -11.7 °C -14.9 °C 1032.1 hPa Calm     77% 0 mm 0 W/m2
22:30 -11.7 °C -14.7 °C 1032.4 hPa Calm     78% 0 mm 0 W/m2
22:42 -11.8 °C -14.8 °C 1032.4 hPa Calm   1.6 km/h 78% 0 mm 0 W/m2
22:48 -11.8 °C -14.9 °C 1032.1 hPa Calm   1.6 km/h 78% 0 mm 0 W/m2
22:54 -11.8 °C -14.9 °C 1032.1 hPa Calm     78% 0 mm 0 W/m2
23:00 -11.9 °C -14.9 °C 1032.1 hPa Calm     78% 0 mm 0 W/m2
23:06 -12.1 °C -15.3 °C 1032.4 hPa Calm     77% 0 mm 0 W/m2
23:12 -12.2 °C -15.6 °C 1032.4 hPa Calm   1.6 km/h 76% 0 mm 0 W/m2
23:18 -12.3 °C -15.5 °C 1032.4 hPa Calm   1.6 km/h 77% 0 mm 0 W/m2
23:24 -12.3 °C -15.4 °C 1032.4 hPa Calm     78% 0 mm 0 W/m2
23:30 -12.3 °C -15.3 °C 1032.4 hPa Calm     78% 0 mm 0 W/m2
23:36 -12.3 °C -15.2 °C 1032.4 hPa Calm     79% 0 mm 0 W/m2
23:42 -12.4 °C -15.3 °C 1032.1 hPa Calm     79% 0 mm 0 W/m2
23:48 -12.4 °C -15.4 °C 1032.1 hPa Calm     78% 0 mm 0 W/m2
23:54 -12.4 °C -15.3 °C 1032.1 hPa Calm     79% 0 mm 0 W/m2
Country Meadow, Clay, NY, USA
Compliments of Weather Underground - 2 mb